sensor_id;sensor_type;location;lat;lon;timestamp;P1;P2;P0
47079;PMS5003;33067;49.296;14.470;2022-11-20T00:01:11;47;40;
47079;PMS5003;33067;49.296;14.470;2022-11-20T00:03:36;42;38;
47079;PMS5003;33067;49.296;14.470;2022-11-20T00:06:01;38;28;
47079;PMS5003;33067;49.296;14.470;2022-11-20T00:08:27;37;34;
47079;PMS5003;33067;49.296;14.470;2022-11-20T00:10:52;47;41;
47079;PMS5003;33067;49.296;14.470;2022-11-20T00:13:18;43;32;
47079;PMS5003;33067;49.296;14.470;2022-11-20T00:15:44;41;35;
47079;PMS5003;33067;49.296;14.470;2022-11-20T00:18:09;46;45;
47079;PMS5003;33067;49.296;14.470;2022-11-20T00:20:35;41;34;
47079;PMS5003;33067;49.296;14.470;2022-11-20T00:23:00;37;30;
47079;PMS5003;33067;49.296;14.470;2022-11-20T00:25:26;33;32;
47079;PMS5003;33067;49.296;14.470;2022-11-20T00:27:51;51;39;
47079;PMS5003;33067;49.296;14.470;2022-11-20T00:30:17;43;36;
47079;PMS5003;33067;49.296;14.470;2022-11-20T00:32:42;33;32;
47079;PMS5003;33067;49.296;14.470;2022-11-20T00:35:07;49;40;
47079;PMS5003;33067;49.296;14.470;2022-11-20T00:37:32;39;36;
47079;PMS5003;33067;49.296;14.470;2022-11-20T00:39:58;40;34;
47079;PMS5003;33067;49.296;14.470;2022-11-20T00:42:23;48;44;
47079;PMS5003;33067;49.296;14.470;2022-11-20T00:44:49;29;28;
47079;PMS5003;33067;49.296;14.470;2022-11-20T00:47:15;40;31;
47079;PMS5003;33067;49.296;14.470;2022-11-20T00:49:40;33;30;
47079;PMS5003;33067;49.296;14.470;2022-11-20T00:52:05;36;32;
47079;PMS5003;33067;49.296;14.470;2022-11-20T00:54:31;38;32;
47079;PMS5003;33067;49.296;14.470;2022-11-20T00:56:56;43;34;
47079;PMS5003;33067;49.296;14.470;2022-11-20T00:59:21;37;32;
47079;PMS5003;33067;49.296;14.470;2022-11-20T01:01:47;42;33;
47079;PMS5003;33067;49.296;14.470;2022-11-20T01:04:12;37;34;
47079;PMS5003;33067;49.296;14.470;2022-11-20T01:06:38;41;35;
47079;PMS5003;33067;49.296;14.470;2022-11-20T01:09:04;34;30;
47079;PMS5003;33067;49.296;14.470;2022-11-20T01:11:29;45;41;
47079;PMS5003;33067;49.296;14.470;2022-11-20T01:13:54;38;31;
47079;PMS5003;33067;49.296;14.470;2022-11-20T01:16:20;47;40;
47079;PMS5003;33067;49.296;14.470;2022-11-20T01:18:45;34;29;
47079;PMS5003;33067;49.296;14.470;2022-11-20T01:21:10;41;37;
47079;PMS5003;33067;49.296;14.470;2022-11-20T01:23:36;39;30;
47079;PMS5003;33067;49.296;14.470;2022-11-20T01:26:02;40;36;
47079;PMS5003;33067;49.296;14.470;2022-11-20T01:28:26;40;37;
47079;PMS5003;33067;49.296;14.470;2022-11-20T01:30:51;48;40;
47079;PMS5003;33067;49.296;14.470;2022-11-20T01:33:16;40;36;
47079;PMS5003;33067;49.296;14.470;2022-11-20T01:35:42;42;36;
47079;PMS5003;33067;49.296;14.470;2022-11-20T01:38:07;48;43;
47079;PMS5003;33067;49.296;14.470;2022-11-20T01:40:33;55;46;
47079;PMS5003;33067;49.296;14.470;2022-11-20T01:43:01;45;41;
47079;PMS5003;33067;49.296;14.470;2022-11-20T01:47:48;47;42;
47079;PMS5003;33067;49.296;14.470;2022-11-20T01:50:15;35;31;
47079;PMS5003;33067;49.296;14.470;2022-11-20T01:52:39;37;37;
47079;PMS5003;33067;49.296;14.470;2022-11-20T01:55:05;44;43;
47079;PMS5003;33067;49.296;14.470;2022-11-20T01:57:29;38;33;
47079;PMS5003;33067;49.296;14.470;2022-11-20T01:59:57;41;39;
47079;PMS5003;33067;49.296;14.470;2022-11-20T02:02:20;42;38;
47079;PMS5003;33067;49.296;14.470;2022-11-20T02:04:45;43;36;
47079;PMS5003;33067;49.296;14.470;2022-11-20T02:07:11;43;35;
47079;PMS5003;33067;49.296;14.470;2022-11-20T02:09:36;29;29;
47079;PMS5003;33067;49.296;14.470;2022-11-20T02:12:01;46;37;
47079;PMS5003;33067;49.296;14.470;2022-11-20T02:14:26;39;33;
47079;PMS5003;33067;49.296;14.470;2022-11-20T02:16:52;33;29;
47079;PMS5003;33067;49.296;14.470;2022-11-20T02:19:21;38;33;
47079;PMS5003;33067;49.296;14.470;2022-11-20T02:21:45;38;33;
47079;PMS5003;33067;49.296;14.470;2022-11-20T02:24:10;39;34;
47079;PMS5003;33067;49.296;14.470;2022-11-20T02:26:37;35;30;
47079;PMS5003;33067;49.296;14.470;2022-11-20T02:29:00;34;33;
47079;PMS5003;33067;49.296;14.470;2022-11-20T02:31:25;34;30;
47079;PMS5003;33067;49.296;14.470;2022-11-20T02:33:54;34;30;
47079;PMS5003;33067;49.296;14.470;2022-11-20T02:36:15;42;41;
47079;PMS5003;33067;49.296;14.470;2022-11-20T02:38:40;31;31;
47079;PMS5003;33067;49.296;14.470;2022-11-20T02:41:05;52;39;
47079;PMS5003;33067;49.296;14.470;2022-11-20T02:43:30;47;42;
47079;PMS5003;33067;49.296;14.470;2022-11-20T02:45:56;39;35;
47079;PMS5003;33067;49.296;14.470;2022-11-20T02:48:21;38;34;
47079;PMS5003;33067;49.296;14.470;2022-11-20T02:50:47;38;33;
47079;PMS5003;33067;49.296;14.470;2022-11-20T02:53:12;46;38;
47079;PMS5003;33067;49.296;14.470;2022-11-20T02:55:38;47;39;
47079;PMS5003;33067;49.296;14.470;2022-11-20T02:58:03;42;37;
47079;PMS5003;33067;49.296;14.470;2022-11-20T03:00:29;51;39;
47079;PMS5003;33067;49.296;14.470;2022-11-20T03:02:55;41;29;
47079;PMS5003;33067;49.296;14.470;2022-11-20T03:05:20;44;43;
47079;PMS5003;33067;49.296;14.470;2022-11-20T03:07:46;41;36;
47079;PMS5003;33067;49.296;14.470;2022-11-20T03:13:01;37;33;
47079;PMS5003;33067;49.296;14.470;2022-11-20T03:15:26;46;37;
47079;PMS5003;33067;49.296;14.470;2022-11-20T03:17:52;37;37;
47079;PMS5003;33067;49.296;14.470;2022-11-20T03:20:17;50;46;
47079;PMS5003;33067;49.296;14.470;2022-11-20T03:22:42;52;44;
47079;PMS5003;33067;49.296;14.470;2022-11-20T03:25:08;38;34;
47079;PMS5003;33067;49.296;14.470;2022-11-20T03:27:34;35;32;
47079;PMS5003;33067;49.296;14.470;2022-11-20T03:29:59;47;42;
47079;PMS5003;33067;49.296;14.470;2022-11-20T03:32:24;47;41;
47079;PMS5003;33067;49.296;14.470;2022-11-20T03:34:50;44;37;
47079;PMS5003;33067;49.296;14.470;2022-11-20T03:37:15;44;37;
47079;PMS5003;33067;49.296;14.470;2022-11-20T03:39:40;42;41;
47079;PMS5003;33067;49.296;14.470;2022-11-20T03:42:06;38;31;
47079;PMS5003;33067;49.296;14.470;2022-11-20T03:44:31;43;38;
47079;PMS5003;33067;49.296;14.470;2022-11-20T03:46:57;34;28;
47079;PMS5003;33067;49.296;14.470;2022-11-20T03:49:23;38;35;
47079;PMS5003;33067;49.296;14.470;2022-11-20T03:51:48;50;45;
47079;PMS5003;33067;49.296;14.470;2022-11-20T03:54:13;36;33;
47079;PMS5003;33067;49.296;14.470;2022-11-20T03:56:39;43;36;
47079;PMS5003;33067;49.296;14.470;2022-11-20T03:59:05;51;44;
47079;PMS5003;33067;49.296;14.470;2022-11-20T04:01:31;38;33;
47079;PMS5003;33067;49.296;14.470;2022-11-20T04:03:56;40;37;
47079;PMS5003;33067;49.296;14.470;2022-11-20T04:06:21;48;38;
47079;PMS5003;33067;49.296;14.470;2022-11-20T04:08:46;39;37;
47079;PMS5003;33067;49.296;14.470;2022-11-20T04:11:12;44;40;
47079;PMS5003;33067;49.296;14.470;2022-11-20T04:13:37;41;37;
47079;PMS5003;33067;49.296;14.470;2022-11-20T04:16:04;43;35;
47079;PMS5003;33067;49.296;14.470;2022-11-20T04:18:28;50;37;
47079;PMS5003;33067;49.296;14.470;2022-11-20T04:20:56;49;43;
47079;PMS5003;33067;49.296;14.470;2022-11-20T04:23:19;47;38;
47079;PMS5003;33067;49.296;14.470;2022-11-20T04:25:44;44;42;
47079;PMS5003;33067;49.296;14.470;2022-11-20T04:28:09;44;35;
47079;PMS5003;33067;49.296;14.470;2022-11-20T04:30:35;35;32;
47079;PMS5003;33067;49.296;14.470;2022-11-20T04:33:01;43;35;
47079;PMS5003;33067;49.296;14.470;2022-11-20T04:35:26;50;42;
47079;PMS5003;33067;49.296;14.470;2022-11-20T04:37:52;48;40;
47079;PMS5003;33067;49.296;14.470;2022-11-20T04:40:17;32;30;
47079;PMS5003;33067;49.296;14.470;2022-11-20T04:42:42;41;35;
47079;PMS5003;33067;49.296;14.470;2022-11-20T04:45:08;46;42;
47079;PMS5003;33067;49.296;14.470;2022-11-20T04:47:33;42;38;
47079;PMS5003;33067;49.296;14.470;2022-11-20T04:49:58;49;41;
47079;PMS5003;33067;49.296;14.470;2022-11-20T04:52:24;46;44;
47079;PMS5003;33067;49.296;14.470;2022-11-20T04:54:49;43;32;
47079;PMS5003;33067;49.296;14.470;2022-11-20T04:57:14;48;36;
47079;PMS5003;33067;49.296;14.470;2022-11-20T04:59:39;45;40;
47079;PMS5003;33067;49.296;14.470;2022-11-20T05:02:05;44;36;
47079;PMS5003;33067;49.296;14.470;2022-11-20T05:04:30;44;36;
47079;PMS5003;33067;49.296;14.470;2022-11-20T05:06:55;35;32;
47079;PMS5003;33067;49.296;14.470;2022-11-20T05:09:21;54;44;
47079;PMS5003;33067;49.296;14.470;2022-11-20T05:11:46;59;53;
47079;PMS5003;33067;49.296;14.470;2022-11-20T05:14:12;50;43;
47079;PMS5003;33067;49.296;14.470;2022-11-20T05:16:38;44;40;
47079;PMS5003;33067;49.296;14.470;2022-11-20T05:19:04;52;44;
47079;PMS5003;33067;49.296;14.470;2022-11-20T05:21:30;59;46;
47079;PMS5003;33067;49.296;14.470;2022-11-20T05:23:55;53;44;
47079;PMS5003;33067;49.296;14.470;2022-11-20T05:26:21;37;33;
47079;PMS5003;33067;49.296;14.470;2022-11-20T05:28:47;41;35;
47079;PMS5003;33067;49.296;14.470;2022-11-20T05:31:13;43;38;
47079;PMS5003;33067;49.296;14.470;2022-11-20T05:33:39;50;43;
47079;PMS5003;33067;49.296;14.470;2022-11-20T05:36:04;44;35;
47079;PMS5003;33067;49.296;14.470;2022-11-20T05:38:29;40;31;
47079;PMS5003;33067;49.296;14.470;2022-11-20T05:40:54;48;43;
47079;PMS5003;33067;49.296;14.470;2022-11-20T05:43:19;51;46;
47079;PMS5003;33067;49.296;14.470;2022-11-20T05:48:11;51;46;
47079;PMS5003;33067;49.296;14.470;2022-11-20T05:50:36;54;47;
47079;PMS5003;33067;49.296;14.470;2022-11-20T05:53:02;59;47;
47079;PMS5003;33067;49.296;14.470;2022-11-20T05:55:27;82;76;
47079;PMS5003;33067;49.296;14.470;2022-11-20T05:57:52;60;52;
47079;PMS5003;33067;49.296;14.470;2022-11-20T06:00:17;48;40;
47079;PMS5003;33067;49.296;14.470;2022-11-20T06:02:43;47;40;
47079;PMS5003;33067;49.296;14.470;2022-11-20T06:05:08;47;38;
47079;PMS5003;33067;49.296;14.470;2022-11-20T06:07:34;51;47;
47079;PMS5003;33067;49.296;14.470;2022-11-20T06:09:59;51;41;
47079;PMS5003;33067;49.296;14.470;2022-11-20T06:12:24;53;43;
47079;PMS5003;33067;49.296;14.470;2022-11-20T06:14:49;46;42;
47079;PMS5003;33067;49.296;14.470;2022-11-20T06:17:14;46;43;
47079;PMS5003;33067;49.296;14.470;2022-11-20T06:19:39;40;36;
47079;PMS5003;33067;49.296;14.470;2022-11-20T06:22:05;47;39;
47079;PMS5003;33067;49.296;14.470;2022-11-20T06:24:30;49;40;
47079;PMS5003;33067;49.296;14.470;2022-11-20T06:26:56;56;42;
47079;PMS5003;33067;49.296;14.470;2022-11-20T06:29:21;45;42;
47079;PMS5003;33067;49.296;14.470;2022-11-20T06:31:47;63;47;
47079;PMS5003;33067;49.296;14.470;2022-11-20T06:34:12;47;42;
47079;PMS5003;33067;49.296;14.470;2022-11-20T06:36:38;41;36;
47079;PMS5003;33067;49.296;14.470;2022-11-20T06:39:03;58;43;
47079;PMS5003;33067;49.296;14.470;2022-11-20T06:41:29;43;35;
47079;PMS5003;33067;49.296;14.470;2022-11-20T06:43:54;48;43;
47079;PMS5003;33067;49.296;14.470;2022-11-20T06:46:20;50;44;
47079;PMS5003;33067;49.296;14.470;2022-11-20T06:48:45;44;37;
47079;PMS5003;33067;49.296;14.470;2022-11-20T06:51:12;54;49;
47079;PMS5003;33067;49.296;14.470;2022-11-20T06:53:36;52;44;
47079;PMS5003;33067;49.296;14.470;2022-11-20T06:56:01;48;36;
47079;PMS5003;33067;49.296;14.470;2022-11-20T06:58:27;45;42;
47079;PMS5003;33067;49.296;14.470;2022-11-20T07:00:52;51;45;
47079;PMS5003;33067;49.296;14.470;2022-11-20T07:03:17;63;47;
47079;PMS5003;33067;49.296;14.470;2022-11-20T07:05:43;56;52;
47079;PMS5003;33067;49.296;14.470;2022-11-20T07:08:08;55;48;
47079;PMS5003;33067;49.296;14.470;2022-11-20T07:10:33;54;48;
47079;PMS5003;33067;49.296;14.470;2022-11-20T07:12:59;45;41;
47079;PMS5003;33067;49.296;14.470;2022-11-20T07:15:24;57;48;
47079;PMS5003;33067;49.296;14.470;2022-11-20T07:17:49;56;42;
47079;PMS5003;33067;49.296;14.470;2022-11-20T07:20:15;54;45;
47079;PMS5003;33067;49.296;14.470;2022-11-20T07:22:40;50;41;
47079;PMS5003;33067;49.296;14.470;2022-11-20T07:25:06;61;51;
47079;PMS5003;33067;49.296;14.470;2022-11-20T07:27:31;50;45;
47079;PMS5003;33067;49.296;14.470;2022-11-20T07:29:56;49;40;
47079;PMS5003;33067;49.296;14.470;2022-11-20T07:32:22;49;44;
47079;PMS5003;33067;49.296;14.470;2022-11-20T07:34:47;53;39;
47079;PMS5003;33067;49.296;14.470;2022-11-20T07:37:13;61;52;
47079;PMS5003;33067;49.296;14.470;2022-11-20T07:39:38;45;40;
47079;PMS5003;33067;49.296;14.470;2022-11-20T07:42:03;63;53;
47079;PMS5003;33067;49.296;14.470;2022-11-20T07:44:29;48;43;
47079;PMS5003;33067;49.296;14.470;2022-11-20T07:46:54;54;43;
47079;PMS5003;33067;49.296;14.470;2022-11-20T07:49:20;53;48;
47079;PMS5003;33067;49.296;14.470;2022-11-20T07:51:46;57;48;
47079;PMS5003;33067;49.296;14.470;2022-11-20T07:54:12;56;48;
47079;PMS5003;33067;49.296;14.470;2022-11-20T07:56:37;43;39;
47079;PMS5003;33067;49.296;14.470;2022-11-20T07:59:03;57;52;
47079;PMS5003;33067;49.296;14.470;2022-11-20T08:01:28;53;44;
47079;PMS5003;33067;49.296;14.470;2022-11-20T08:03:53;64;55;
47079;PMS5003;33067;49.296;14.470;2022-11-20T08:06:19;61;56;
47079;PMS5003;33067;49.296;14.470;2022-11-20T08:08:44;57;47;
47079;PMS5003;33067;49.296;14.470;2022-11-20T08:11:09;57;44;
47079;PMS5003;33067;49.296;14.470;2022-11-20T08:13:34;54;48;
47079;PMS5003;33067;49.296;14.470;2022-11-20T08:16:00;55;44;
47079;PMS5003;33067;49.296;14.470;2022-11-20T08:18:25;60;42;
47079;PMS5003;33067;49.296;14.470;2022-11-20T08:20:50;55;48;
47079;PMS5003;33067;49.296;14.470;2022-11-20T08:23:15;73;58;
47079;PMS5003;33067;49.296;14.470;2022-11-20T08:25:40;55;45;
47079;PMS5003;33067;49.296;14.470;2022-11-20T08:28:07;65;58;
47079;PMS5003;33067;49.296;14.470;2022-11-20T08:30:31;59;54;
47079;PMS5003;33067;49.296;14.470;2022-11-20T08:33:00;56;51;
47079;PMS5003;33067;49.296;14.470;2022-11-20T08:35:22;54;49;
47079;PMS5003;33067;49.296;14.470;2022-11-20T08:37:47;49;43;
47079;PMS5003;33067;49.296;14.470;2022-11-20T08:40:15;54;45;
47079;PMS5003;33067;49.296;14.470;2022-11-20T08:45:03;58;50;
47079;PMS5003;33067;49.296;14.470;2022-11-20T08:47:28;60;47;
47079;PMS5003;33067;49.296;14.470;2022-11-20T08:49:54;55;49;
47079;PMS5003;33067;49.296;14.470;2022-11-20T08:52:19;60;54;
47079;PMS5003;33067;49.296;14.470;2022-11-20T08:54:45;59;46;
47079;PMS5003;33067;49.296;14.470;2022-11-20T08:57:10;57;52;
47079;PMS5003;33067;49.296;14.470;2022-11-20T08:59:36;56;53;
47079;PMS5003;33067;49.296;14.470;2022-11-20T09:02:01;67;55;
47079;PMS5003;33067;49.296;14.470;2022-11-20T09:04:26;796;588;
47079;PMS5003;33067;49.296;14.470;2022-11-20T09:06:51;65;55;
47079;PMS5003;33067;49.296;14.470;2022-11-20T09:09:17;55;50;
47079;PMS5003;33067;49.296;14.470;2022-11-20T09:11:42;55;50;
47079;PMS5003;33067;49.296;14.470;2022-11-20T09:14:07;50;49;
47079;PMS5003;33067;49.296;14.470;2022-11-20T09:16:32;55;45;
47079;PMS5003;33067;49.296;14.470;2022-11-20T09:18:57;191;163;
47079;PMS5003;33067;49.296;14.470;2022-11-20T09:21:22;63;54;
47079;PMS5003;33067;49.296;14.470;2022-11-20T09:23:48;112;91;
47079;PMS5003;33067;49.296;14.470;2022-11-20T09:26:13;139;116;
47079;PMS5003;33067;49.296;14.470;2022-11-20T09:28:39;61;53;
47079;PMS5003;33067;49.296;14.470;2022-11-20T09:31:04;61;55;
47079;PMS5003;33067;49.296;14.470;2022-11-20T09:33:29;68;55;
47079;PMS5003;33067;49.296;14.470;2022-11-20T09:35:55;57;47;
47079;PMS5003;33067;49.296;14.470;2022-11-20T09:38:21;59;50;
47079;PMS5003;33067;49.296;14.470;2022-11-20T09:40:48;59;50;
47079;PMS5003;33067;49.296;14.470;2022-11-20T09:43:12;108;96;
47079;PMS5003;33067;49.296;14.470;2022-11-20T09:45:38;59;54;
47079;PMS5003;33067;49.296;14.470;2022-11-20T09:50:30;65;60;
47079;PMS5003;33067;49.296;14.470;2022-11-20T09:52:57;68;55;
47079;PMS5003;33067;49.296;14.470;2022-11-20T09:55:18;60;52;
47079;PMS5003;33067;49.296;14.470;2022-11-20T09:57:45;76;61;
47079;PMS5003;33067;49.296;14.470;2022-11-20T10:00:11;65;58;
47079;PMS5003;33067;49.296;14.470;2022-11-20T10:02:36;55;51;
47079;PMS5003;33067;49.296;14.470;2022-11-20T10:05:03;45;42;
47079;PMS5003;33067;49.296;14.470;2022-11-20T10:07:27;60;53;
47079;PMS5003;33067;49.296;14.470;2022-11-20T10:09:52;52;48;
47079;PMS5003;33067;49.296;14.470;2022-11-20T10:12:19;51;45;
47079;PMS5003;33067;49.296;14.470;2022-11-20T10:14:48;52;41;
47079;PMS5003;33067;49.296;14.470;2022-11-20T10:17:12;56;50;
47079;PMS5003;33067;49.296;14.470;2022-11-20T10:19:38;52;51;
47079;PMS5003;33067;49.296;14.470;2022-11-20T10:22:01;51;41;
47079;PMS5003;33067;49.296;14.470;2022-11-20T10:24:36;57;44;
47079;PMS5003;33067;49.296;14.470;2022-11-20T10:26:51;60;56;
47079;PMS5003;33067;49.296;14.470;2022-11-20T10:29:17;55;48;
47079;PMS5003;33067;49.296;14.470;2022-11-20T10:31:42;64;51;
47079;PMS5003;33067;49.296;14.470;2022-11-20T10:34:07;74;57;
47079;PMS5003;33067;49.296;14.470;2022-11-20T10:36:34;52;43;
47079;PMS5003;33067;49.296;14.470;2022-11-20T10:38:59;51;43;
47079;PMS5003;33067;49.296;14.470;2022-11-20T10:41:24;61;53;
47079;PMS5003;33067;49.296;14.470;2022-11-20T10:43:50;73;62;
47079;PMS5003;33067;49.296;14.470;2022-11-20T10:46:15;53;46;
47079;PMS5003;33067;49.296;14.470;2022-11-20T10:48:40;62;46;
47079;PMS5003;33067;49.296;14.470;2022-11-20T10:51:08;54;45;
47079;PMS5003;33067;49.296;14.470;2022-11-20T10:53:36;49;44;
47079;PMS5003;33067;49.296;14.470;2022-11-20T10:55:57;59;52;
47079;PMS5003;33067;49.296;14.470;2022-11-20T10:58:24;56;43;
47079;PMS5003;33067;49.296;14.470;2022-11-20T11:00:47;61;43;
47079;PMS5003;33067;49.296;14.470;2022-11-20T11:03:19;60;47;
47079;PMS5003;33067;49.296;14.470;2022-11-20T11:05:37;61;50;
47079;PMS5003;33067;49.296;14.470;2022-11-20T11:08:03;55;53;
47079;PMS5003;33067;49.296;14.470;2022-11-20T11:10:31;58;50;
47079;PMS5003;33067;49.296;14.470;2022-11-20T11:12:54;57;48;
47079;PMS5003;33067;49.296;14.470;2022-11-20T11:17:46;58;49;
47079;PMS5003;33067;49.296;14.470;2022-11-20T11:22:39;56;46;
47079;PMS5003;33067;49.296;14.470;2022-11-20T11:25:00;55;48;
47079;PMS5003;33067;49.296;14.470;2022-11-20T11:27:25;49;42;
47079;PMS5003;33067;49.296;14.470;2022-11-20T11:29:51;47;44;
47079;PMS5003;33067;49.296;14.470;2022-11-20T11:32:18;51;44;
47079;PMS5003;33067;49.296;14.470;2022-11-20T11:34:41;50;42;
47079;PMS5003;33067;49.296;14.470;2022-11-20T11:37:10;51;45;
47079;PMS5003;33067;49.296;14.470;2022-11-20T11:39:33;57;46;
47079;PMS5003;33067;49.296;14.470;2022-11-20T11:41:59;69;62;
47079;PMS5003;33067;49.296;14.470;2022-11-20T11:44:26;79;69;
47079;PMS5003;33067;49.296;14.470;2022-11-20T11:46:51;75;61;
47079;PMS5003;33067;49.296;14.470;2022-11-20T11:49:16;54;49;
47079;PMS5003;33067;49.296;14.470;2022-11-20T11:51:41;67;58;
47079;PMS5003;33067;49.296;14.470;2022-11-20T11:54:10;79;72;
47079;PMS5003;33067;49.296;14.470;2022-11-20T11:56:31;67;57;
47079;PMS5003;33067;49.296;14.470;2022-11-20T11:58:57;67;53;
47079;PMS5003;33067;49.296;14.470;2022-11-20T12:01:26;57;52;
47079;PMS5003;33067;49.296;14.470;2022-11-20T12:03:52;62;52;
47079;PMS5003;33067;49.296;14.470;2022-11-20T12:06:14;61;55;
47079;PMS5003;33067;49.296;14.470;2022-11-20T12:08:41;63;52;
47079;PMS5003;33067;49.296;14.470;2022-11-20T12:11:04;56;52;
47079;PMS5003;33067;49.296;14.470;2022-11-20T12:13:36;52;41;
47079;PMS5003;33067;49.296;14.470;2022-11-20T12:15:54;60;50;
47079;PMS5003;33067;49.296;14.470;2022-11-20T12:18:20;76;57;
47079;PMS5003;33067;49.296;14.470;2022-11-20T12:20:45;65;56;
47079;PMS5003;33067;49.296;14.470;2022-11-20T12:23:13;62;53;
47079;PMS5003;33067;49.296;14.470;2022-11-20T12:25:36;73;57;
47079;PMS5003;33067;49.296;14.470;2022-11-20T12:28:04;65;53;
47079;PMS5003;33067;49.296;14.470;2022-11-20T12:30:26;61;54;
47079;PMS5003;33067;49.296;14.470;2022-11-20T12:35:24;65;54;
47079;PMS5003;33067;49.296;14.470;2022-11-20T12:37:45;59;55;
47079;PMS5003;33067;49.296;14.470;2022-11-20T12:40:14;62;49;
47079;PMS5003;33067;49.296;14.470;2022-11-20T12:42:37;66;56;
47079;PMS5003;33067;49.296;14.470;2022-11-20T12:45:02;51;48;
47079;PMS5003;33067;49.296;14.470;2022-11-20T12:47:24;47;42;
47079;PMS5003;33067;49.296;14.470;2022-11-20T12:49:51;56;49;
47079;PMS5003;33067;49.296;14.470;2022-11-20T12:52:17;56;50;
47079;PMS5003;33067;49.296;14.470;2022-11-20T12:54:43;57;48;
47079;PMS5003;33067;49.296;14.470;2022-11-20T12:57:06;61;52;
47079;PMS5003;33067;49.296;14.470;2022-11-20T12:59:40;62;50;
47079;PMS5003;33067;49.296;14.470;2022-11-20T13:01:58;55;49;
47079;PMS5003;33067;49.296;14.470;2022-11-20T13:04:27;104;94;
47079;PMS5003;33067;49.296;14.470;2022-11-20T13:06:47;77;65;
47079;PMS5003;33067;49.296;14.470;2022-11-20T13:09:14;80;66;
47079;PMS5003;33067;49.296;14.470;2022-11-20T13:11:41;62;57;
47079;PMS5003;33067;49.296;14.470;2022-11-20T13:14:09;55;49;
47079;PMS5003;33067;49.296;14.470;2022-11-20T13:16:30;55;51;
47079;PMS5003;33067;49.296;14.470;2022-11-20T13:18:56;50;46;
47079;PMS5003;33067;49.296;14.470;2022-11-20T13:21:22;66;55;
47079;PMS5003;33067;49.296;14.470;2022-11-20T13:23:47;58;51;
47079;PMS5003;33067;49.296;14.470;2022-11-20T13:26:15;51;41;
47079;PMS5003;33067;49.296;14.470;2022-11-20T13:28:37;55;52;
47079;PMS5003;33067;49.296;14.470;2022-11-20T13:31:02;65;56;
47079;PMS5003;33067;49.296;14.470;2022-11-20T13:33:29;50;44;
47079;PMS5003;33067;49.296;14.470;2022-11-20T13:35:55;60;56;
47079;PMS5003;33067;49.296;14.470;2022-11-20T13:38:19;64;54;
47079;PMS5003;33067;49.296;14.470;2022-11-20T13:43:19;58;52;
47079;PMS5003;33067;49.296;14.470;2022-11-20T13:45:35;67;48;
47079;PMS5003;33067;49.296;14.470;2022-11-20T13:48:01;57;51;
47079;PMS5003;33067;49.296;14.470;2022-11-20T13:50:31;64;59;
47079;PMS5003;33067;49.296;14.470;2022-11-20T13:52:52;58;53;
47079;PMS5003;33067;49.296;14.470;2022-11-20T13:55:18;52;47;
47079;PMS5003;33067;49.296;14.470;2022-11-20T13:57:46;62;54;
47079;PMS5003;33067;49.296;14.470;2022-11-20T14:00:11;65;54;
47079;PMS5003;33067;49.296;14.470;2022-11-20T14:02:32;62;52;
47079;PMS5003;33067;49.296;14.470;2022-11-20T14:04:58;53;50;
47079;PMS5003;33067;49.296;14.470;2022-11-20T14:07:23;63;59;
47079;PMS5003;33067;49.296;14.470;2022-11-20T14:09:50;60;53;
47079;PMS5003;33067;49.296;14.470;2022-11-20T14:12:15;59;53;
47079;PMS5003;33067;49.296;14.470;2022-11-20T14:14:46;57;50;
47079;PMS5003;33067;49.296;14.470;2022-11-20T14:17:05;57;53;
47079;PMS5003;33067;49.296;14.470;2022-11-20T14:19:29;57;51;
47079;PMS5003;33067;49.296;14.470;2022-11-20T14:24:21;198;195;
47079;PMS5003;33067;49.296;14.470;2022-11-20T14:26:47;83;75;
47079;PMS5003;33067;49.296;14.470;2022-11-20T14:29:12;144;132;
47079;PMS5003;33067;49.296;14.470;2022-11-20T14:31:38;179;164;
47079;PMS5003;33067;49.296;14.470;2022-11-20T14:34:03;209;198;
47079;PMS5003;33067;49.296;14.470;2022-11-20T14:36:29;235;233;
47079;PMS5003;33067;49.296;14.470;2022-11-20T14:38:54;106;104;
47079;PMS5003;33067;49.296;14.470;2022-11-20T14:41:20;141;131;
47079;PMS5003;33067;49.296;14.470;2022-11-20T14:43:45;141;133;
47079;PMS5003;33067;49.296;14.470;2022-11-20T14:46:10;196;189;
47079;PMS5003;33067;49.296;14.470;2022-11-20T14:48:36;222;218;
47079;PMS5003;33067;49.296;14.470;2022-11-20T14:51:01;237;221;
47079;PMS5003;33067;49.296;14.470;2022-11-20T14:53:26;227;220;
47079;PMS5003;33067;49.296;14.470;2022-11-20T14:55:55;331;320;
47079;PMS5003;33067;49.296;14.470;2022-11-20T14:58:20;279;267;
47079;PMS5003;33067;49.296;14.470;2022-11-20T15:00:42;277;264;
47079;PMS5003;33067;49.296;14.470;2022-11-20T15:05:45;192;183;
47079;PMS5003;33067;49.296;14.470;2022-11-20T15:08:04;216;202;
47079;PMS5003;33067;49.296;14.470;2022-11-20T15:10:25;211;206;
47079;PMS5003;33067;49.296;14.470;2022-11-20T15:12:51;214;212;
47079;PMS5003;33067;49.296;14.470;2022-11-20T15:15:16;267;249;
47079;PMS5003;33067;49.296;14.470;2022-11-20T15:17:41;152;146;
47079;PMS5003;33067;49.296;14.470;2022-11-20T15:20:09;225;210;
47079;PMS5003;33067;49.296;14.470;2022-11-20T15:22:32;189;177;
47079;PMS5003;33067;49.296;14.470;2022-11-20T15:24:57;203;189;
47079;PMS5003;33067;49.296;14.470;2022-11-20T15:27:23;154;141;
47079;PMS5003;33067;49.296;14.470;2022-11-20T15:29:48;137;122;
47079;PMS5003;33067;49.296;14.470;2022-11-20T15:32:13;117;104;
47079;PMS5003;33067;49.296;14.470;2022-11-20T15:34:39;107;101;
47079;PMS5003;33067;49.296;14.470;2022-11-20T15:37:04;110;100;
47079;PMS5003;33067;49.296;14.470;2022-11-20T15:39:30;130;116;
47079;PMS5003;33067;49.296;14.470;2022-11-20T15:41:55;141;133;
47079;PMS5003;33067;49.296;14.470;2022-11-20T15:44:21;169;154;
47079;PMS5003;33067;49.296;14.470;2022-11-20T15:46:46;177;168;
47079;PMS5003;33067;49.296;14.470;2022-11-20T15:49:13;75;70;
47079;PMS5003;33067;49.296;14.470;2022-11-20T15:51:38;77;70;
47079;PMS5003;33067;49.296;14.470;2022-11-20T15:54:05;87;72;
47079;PMS5003;33067;49.296;14.470;2022-11-20T15:56:28;77;65;
47079;PMS5003;33067;49.296;14.470;2022-11-20T15:58:54;71;62;
47079;PMS5003;33067;49.296;14.470;2022-11-20T16:01:20;78;72;
47079;PMS5003;33067;49.296;14.470;2022-11-20T16:03:45;73;63;
47079;PMS5003;33067;49.296;14.470;2022-11-20T16:06:10;79;66;
47079;PMS5003;33067;49.296;14.470;2022-11-20T16:08:36;83;74;
47079;PMS5003;33067;49.296;14.470;2022-11-20T16:11:02;102;84;
47079;PMS5003;33067;49.296;14.470;2022-11-20T16:13:27;93;82;